Valle Di Nervion — IBPC — position and weather

sailwx.info

Track history (hours):
 
Tides and Currents Weather Stations Pressure Air Temp Water Temp Dewpoint Dewpoint Depression Visibility Wind Speed Wind Dir Waves Ship Positions

Valle Di Nervion

Last reported at 2017-Nov-11 04:03 UTC. Time now 2017-Nov-21 17:13 UTC.
Position N 39°05' E 009°46'.
Warning: this ship's position is 10 days out of date.

Length 176 m; draft 10.5 m.

Type: Ship. MMSI: 247109500.

Date/timePositionNaut miles runAvg speedWind from/ knotsBaromVisibWave heightAir tempDewpointWater temp
2017-Nov-11 04:03N 39°05' E 009°46'511.9
2017-Nov-11 03:39N 39°01' E 009°42'212.2
2017-Nov-11 03:27N 38°60' E 009°40'612.1
2017-Nov-11 02:57N 38°57' E 009°33'511.7
2017-Nov-11 02:29N 38°57' E 009°26'612.6
2017-Nov-11 02:00N 38°60' E 009°19'612.9
2017-Nov-11 01:30N 39°02' E 009°11'612.1
2017-Nov-11 01:00N 39°04' E 009°04'2 3.1
2017-Nov-11 00:30N 39°05' E 009°02'0 0.0
2017-Nov-09 13:11N 39°05' E 009°02'0 0.2
2017-Nov-09 13:00N 39°05' E 009°02'2 4.2
2017-Nov-09 12:30N 39°04' E 009°04'0 0.2
2017-Nov-09 12:00N 39°04' E 009°04'0 0.0
2017-Nov-09 11:30N 39°04' E 009°04'0 0.0
2017-Nov-09 11:00N 39°04' E 009°04'0 0.1
2017-Nov-09 10:30N 39°04' E 009°04'0 0.0
2017-Nov-09 09:57N 39°04' E 009°04'0 0.0
2017-Nov-09 09:30N 39°04' E 009°04'0 0.0
2017-Nov-09 09:00N 39°04' E 009°04'0 0.0
2017-Nov-09 08:30N 39°04' E 009°04'0 0.1
2017-Nov-09 08:00N 39°04' E 009°04'0 0.1
2017-Nov-09 07:30N 39°04' E 009°04'0 0.2
2017-Nov-09 07:00N 39°04' E 009°04'0 0.0
2017-Nov-09 06:30N 39°04' E 009°04'0 0.0
2017-Nov-09 06:00N 39°04' E 009°04'0 0.0
2017-Nov-09 05:30N 39°04' E 009°04'0 0.1
2017-Nov-09 05:00N 39°04' E 009°04'0 0.1
2017-Nov-09 04:30N 39°04' E 009°04'0 0.1
2017-Nov-09 04:00N 39°04' E 009°04'0 0.1
2017-Nov-09 03:30N 39°04' E 009°04'0 0.1
2017-Nov-09 03:00N 39°04' E 009°04'1 1.5
2017-Nov-09 02:30N 39°03' E 009°05'510.6
2017-Nov-09 02:00N 39°01' E 009°11'612.8
2017-Nov-09 01:30N 38°58' E 009°18'612.4
2017-Nov-09 01:00N 38°54' E 009°25'612.3
2017-Nov-09 00:30N 38°51' E 009°32'23111.3
2017-Nov-08 04:01N 36°48' E 013°40'011.2
2017-Nov-08 03:59N 36°48' E 013°40'810.9
2017-Nov-08 03:16N 36°43' E 013°48'310.6
2017-Nov-08 03:00N 36°41' E 013°50'510.2
2017-Nov-08 02:30N 36°38' E 013°55'510.4
2017-Nov-08 02:00N 36°34' E 014°00'510.7
2017-Nov-08 01:30N 36°31' E 014°05'510.3
2017-Nov-08 01:00N 36°28' E 014°10'510.2
2017-Nov-08 00:30N 36°24' E 014°15'510.7
2017-Nov-08 00:00N 36°21' E 014°20'511.0
2017-Nov-07 23:30N 36°18' E 014°25'610.9
2017-Nov-07 23:00N 36°14' E 014°31'611.6
2017-Nov-07 22:30N 36°11' E 014°37'611.8
2017-Nov-07 21:59N 36°07' E 014°43'712.1
2017-Nov-07 21:27N 36°04' E 014°50'811.9
2017-Nov-07 20:48N 35°59' E 014°57'2 1.0
2017-Nov-07 19:01N 35°57' E 014°57'010.7
2017-Nov-07 18:59N 35°57' E 014°57'511.1
2017-Nov-07 18:30N 35°53' E 014°53'2 0.2
2017-Nov-07 08:29N 35°51' E 014°52'0 0.0
2017-Nov-07 07:38N 35°51' E 014°52'0 0.0
2017-Nov-07 06:32N 35°51' E 014°52'0 0.0
2017-Nov-07 05:53N 35°51' E 014°52'0 0.0
2017-Nov-07 04:26N 35°51' E 014°52'0 0.0
2017-Nov-06 23:14N 35°51' E 014°52'0 0.1
2017-Nov-06 22:50N 35°51' E 014°52'0 0.1
2017-Nov-06 21:05N 35°51' E 014°52'0 0.1
2017-Nov-06 20:50N 35°51' E 014°52'0 0.0
2017-Nov-06 20:05N 35°51' E 014°52'0 0.0
2017-Nov-05 06:52N 35°51' E 014°52'0 0.0
2017-Nov-05 06:16N 35°51' E 014°52'0 0.0
2017-Nov-05 05:46N 35°51' E 014°52'0 0.1
2017-Nov-05 05:25N 35°51' E 014°52'0 0.0
2017-Nov-05 03:37N 35°51' E 014°52'0 0.0
2017-Nov-05 03:10N 35°51' E 014°52'0 0.0
2017-Nov-05 02:34N 35°51' E 014°52'0 0.0
2017-Nov-05 02:07N 35°51' E 014°52'0 0.0
2017-Nov-05 01:43N 35°51' E 014°52'0 0.1
2017-Nov-05 01:19N 35°51' E 014°52'0 0.0
2017-Nov-04 23:58N 35°51' E 014°52'0 0.0
2017-Nov-04 23:25N 35°51' E 014°52'0 0.0
2017-Nov-04 22:07N 35°51' E 014°52'0 0.0
2017-Nov-04 20:58N 35°51' E 014°52'0 0.0
2017-Nov-04 20:10N 35°51' E 014°52'0 0.0
2017-Nov-04 19:19N 35°51' E 014°52'0 0.0
2017-Nov-04 18:46N 35°51' E 014°52'0 0.1
2017-Nov-04 18:22N 35°51' E 014°52'0 0.0
2017-Nov-04 17:46N 35°51' E 014°52'0 0.1
2017-Nov-04 17:24N 35°51' E 014°52'0 0.0
2017-Nov-04 16:57N 35°51' E 014°52'0 0.0
2017-Nov-04 16:24N 35°51' E 014°52'0 0.0
2017-Nov-04 16:00N 35°51' E 014°52'0 0.0
2017-Nov-04 15:30N 35°51' E 014°52'0 0.0
2017-Nov-04 14:57N 35°51' E 014°52'0 0.0
2017-Nov-04 14:00N 35°51' E 014°52'0 0.0
2017-Nov-04 13:30N 35°51' E 014°52'0 0.0
2017-Nov-04 13:00N 35°51' E 014°52'0 0.0
2017-Nov-04 12:27N 35°51' E 014°52'0 0.0
2017-Nov-04 12:00N 35°51' E 014°52'0 0.0
2017-Nov-04 11:24N 35°51' E 014°52'0 0.0
2017-Nov-04 10:48N 35°51' E 014°52'0 0.0
2017-Nov-04 10:30N 35°51' E 014°52'0 0.0
2017-Nov-04 10:00N 35°51' E 014°52'0 0.0
2017-Nov-04 09:30N 35°51' E 014°52'0 0.0
2017-Nov-04 09:00N 35°51' E 014°52'0 0.0
2017-Nov-04 08:30N 35°51' E 014°52'0 0.0
2017-Nov-04 08:00N 35°51' E 014°52'0 0.0
2017-Nov-04 07:30N 35°51' E 014°52'0 0.0
2017-Nov-04 07:00N 35°51' E 014°52'0 0.0
2017-Nov-04 06:27N 35°51' E 014°52'0 0.0
2017-Nov-04 04:18N 35°51' E 014°52'0 0.0
2017-Nov-04 02:48N 35°51' E 014°52'0 0.2
2017-Nov-04 02:03N 35°51' E 014°52'0 0.2
2017-Nov-04 01:57N 35°51' E 014°52'0 0.0
2017-Nov-03 21:54N 35°51' E 014°52'0 0.0
2017-Nov-03 19:27N 35°51' E 014°52'0 0.0
2017-Nov-03 18:57N 35°51' E 014°52'0 0.1
2017-Nov-03 18:30N 35°51' E 014°52'0 0.0
2017-Nov-03 17:57N 35°51' E 014°52'0 0.0
2017-Nov-03 17:27N 35°51' E 014°52'0 0.0
2017-Nov-03 16:57N 35°51' E 014°52'0 0.0
2017-Nov-03 16:15N 35°51' E 014°52'0 0.1
2017-Nov-03 15:57N 35°51' E 014°52'0 0.0
2017-Nov-03 15:30N 35°51' E 014°52'0 0.0
2017-Nov-03 15:00N 35°51' E 014°52'0 0.0
2017-Nov-03 14:27N 35°51' E 014°52'0 0.0
2017-Nov-03 13:57N 35°51' E 014°52'0 0.0
2017-Nov-03 13:21N 35°51' E 014°52'0 0.0
2017-Nov-03 13:00N 35°51' E 014°52'0 0.0
2017-Nov-03 12:30N 35°51' E 014°52'0 0.0
2017-Nov-03 11:45N 35°51' E 014°52'0 0.0
2017-Nov-03 11:06N 35°51' E 014°52'0 0.0
2017-Nov-03 10:06N 35°51' E 014°52'0 0.0
2017-Nov-03 09:42N 35°51' E 014°52'0 0.0
2017-Nov-03 09:05N 35°51' E 014°52'0 0.0
2017-Nov-03 08:44N 35°51' E 014°52'0 0.0
2017-Nov-03 08:26N 35°51' E 014°52'0 0.1
2017-Nov-03 07:41N 35°51' E 014°52'0 0.1
2017-Nov-03 07:29N 35°51' E 014°52'0 0.0
2017-Nov-03 06:59N 35°51' E 014°52'0 0.0
2017-Nov-03 06:26N 35°51' E 014°52'0 0.0
2017-Nov-03 05:59N 35°51' E 014°52'0 0.0
2017-Nov-03 05:29N 35°51' E 014°52'0 0.0
2017-Nov-03 04:59N 35°51' E 014°52'0 0.0
2017-Nov-03 04:23N 35°51' E 014°52'0 0.0
2017-Nov-03 03:56N 35°51' E 014°52'0 0.0
2017-Nov-03 02:59N 35°51' E 014°52'0 0.0
2017-Nov-03 02:17N 35°51' E 014°52'0 0.0
2017-Nov-03 01:59N 35°51' E 014°52'0 0.0
2017-Nov-03 01:20N 35°51' E 014°52'0 0.0
2017-Nov-03 00:44N 35°51' E 014°52'0 0.1
2017-Nov-03 00:26N 35°51' E 014°52'0 0.0
2017-Nov-02 23:14N 35°51' E 014°52'0 0.1
2017-Nov-02 22:59N 35°51' E 014°52'0 0.0
2017-Nov-02 22:29N 35°51' E 014°52'0 0.2
2017-Nov-02 21:59N 35°51' E 014°52'0 0.1
2017-Nov-02 21:29N 35°51' E 014°52'0 0.0
2017-Nov-02 18:20N 35°51' E 014°52'0 0.0
2017-Nov-02 17:56N 35°51' E 014°52'0 0.0
2017-Nov-02 17:29N 35°51' E 014°52'0 0.1
2017-Nov-02 16:44N 35°51' E 014°52'0 0.1
2017-Nov-02 16:29N 35°51' E 014°52'0 0.2
2017-Nov-02 15:56N 35°51' E 014°52'0 0.0
2017-Nov-02 15:05N 35°51' E 014°52'0 0.2
2017-Nov-02 14:53N 35°51' E 014°52'0 0.0
2017-Nov-02 14:29N 35°51' E 014°52'0 0.0
2017-Nov-02 13:56N 35°51' E 014°52'2 1.3
2017-Nov-02 12:05N 35°54' E 014°52'1 8.0
2017-Nov-02 12:00N 35°54' E 014°53'4 8.5
2017-Nov-02 11:30N 35°58' E 014°55'  
Track history (hours):
 
Tides and Currents Weather Stations Pressure Air Temp Water Temp Dewpoint Dewpoint Depression Visibility Wind Speed Wind Dir Waves Ship Positions

Valle Di Nervion

Last reported at 2017-Nov-11 04:03 UTC. Time now 2017-Nov-21 17:13 UTC.
Position N 39°05' E 009°46'.
Warning: this ship's position is 10 days out of date.

Length 176 m; draft 10.5 m.

Type: Ship. MMSI: 247109500.

Date/timePositionNaut miles runAvg speedWind from/ knotsBaromVisibWave heightAir tempDewpointWater temp
2017-Nov-11 04:03N 39°05' E 009°46'511.9
2017-Nov-11 03:39N 39°01' E 009°42'212.2
2017-Nov-11 03:27N 38°60' E 009°40'612.1
2017-Nov-11 02:57N 38°57' E 009°33'511.7
2017-Nov-11 02:29N 38°57' E 009°26'612.6
2017-Nov-11 02:00N 38°60' E 009°19'612.9
2017-Nov-11 01:30N 39°02' E 009°11'612.1
2017-Nov-11 01:00N 39°04' E 009°04'2 3.1
2017-Nov-11 00:30N 39°05' E 009°02'0 0.0
2017-Nov-09 13:11N 39°05' E 009°02'0 0.2
2017-Nov-09 13:00N 39°05' E 009°02'2 4.2
2017-Nov-09 12:30N 39°04' E 009°04'0 0.2
2017-Nov-09 12:00N 39°04' E 009°04'0 0.0
2017-Nov-09 11:30N 39°04' E 009°04'0 0.0
2017-Nov-09 11:00N 39°04' E 009°04'0 0.1
2017-Nov-09 10:30N 39°04' E 009°04'0 0.0
2017-Nov-09 09:57N 39°04' E 009°04'0 0.0
2017-Nov-09 09:30N 39°04' E 009°04'0 0.0
2017-Nov-09 09:00N 39°04' E 009°04'0 0.0
2017-Nov-09 08:30N 39°04' E 009°04'0 0.1
2017-Nov-09 08:00N 39°04' E 009°04'0 0.1
2017-Nov-09 07:30N 39°04' E 009°04'0 0.2
2017-Nov-09 07:00N 39°04' E 009°04'0 0.0
2017-Nov-09 06:30N 39°04' E 009°04'0 0.0
2017-Nov-09 06:00N 39°04' E 009°04'0 0.0
2017-Nov-09 05:30N 39°04' E 009°04'0 0.1
2017-Nov-09 05:00N 39°04' E 009°04'0 0.1
2017-Nov-09 04:30N 39°04' E 009°04'0 0.1
2017-Nov-09 04:00N 39°04' E 009°04'0 0.1
2017-Nov-09 03:30N 39°04' E 009°04'0 0.1
2017-Nov-09 03:00N 39°04' E 009°04'1 1.5
2017-Nov-09 02:30N 39°03' E 009°05'510.6
2017-Nov-09 02:00N 39°01' E 009°11'612.8
2017-Nov-09 01:30N 38°58' E 009°18'612.4
2017-Nov-09 01:00N 38°54' E 009°25'612.3
2017-Nov-09 00:30N 38°51' E 009°32'23111.3
2017-Nov-08 04:01N 36°48' E 013°40'011.2
2017-Nov-08 03:59N 36°48' E 013°40'810.9
2017-Nov-08 03:16N 36°43' E 013°48'310.6
2017-Nov-08 03:00N 36°41' E 013°50'510.2
2017-Nov-08 02:30N 36°38' E 013°55'510.4
2017-Nov-08 02:00N 36°34' E 014°00'510.7
2017-Nov-08 01:30N 36°31' E 014°05'510.3
2017-Nov-08 01:00N 36°28' E 014°10'510.2
2017-Nov-08 00:30N 36°24' E 014°15'510.7
2017-Nov-08 00:00N 36°21' E 014°20'511.0
2017-Nov-07 23:30N 36°18' E 014°25'610.9
2017-Nov-07 23:00N 36°14' E 014°31'611.6
2017-Nov-07 22:30N 36°11' E 014°37'611.8
2017-Nov-07 21:59N 36°07' E 014°43'712.1
2017-Nov-07 21:27N 36°04' E 014°50'811.9
2017-Nov-07 20:48N 35°59' E 014°57'2 1.0
2017-Nov-07 19:01N 35°57' E 014°57'010.7
2017-Nov-07 18:59N 35°57' E 014°57'511.1
2017-Nov-07 18:30N 35°53' E 014°53'2 0.2
2017-Nov-07 08:29N 35°51' E 014°52'0 0.0
2017-Nov-07 07:38N 35°51' E 014°52'0 0.0
2017-Nov-07 06:32N 35°51' E 014°52'0 0.0
2017-Nov-07 05:53N 35°51' E 014°52'0 0.0
2017-Nov-07 04:26N 35°51' E 014°52'0 0.0
2017-Nov-06 23:14N 35°51' E 014°52'0 0.1
2017-Nov-06 22:50N 35°51' E 014°52'0 0.1
2017-Nov-06 21:05N 35°51' E 014°52'0 0.1
2017-Nov-06 20:50N 35°51' E 014°52'0 0.0
2017-Nov-06 20:05N 35°51' E 014°52'0 0.0
2017-Nov-05 06:52N 35°51' E 014°52'0 0.0
2017-Nov-05 06:16N 35°51' E 014°52'0 0.0
2017-Nov-05 05:46N 35°51' E 014°52'0 0.1
2017-Nov-05 05:25N 35°51' E 014°52'0 0.0
2017-Nov-05 03:37N 35°51' E 014°52'0 0.0
2017-Nov-05 03:10N 35°51' E 014°52'0 0.0
2017-Nov-05 02:34N 35°51' E 014°52'0 0.0
2017-Nov-05 02:07N 35°51' E 014°52'0 0.0
2017-Nov-05 01:43N 35°51' E 014°52'0 0.1
2017-Nov-05 01:19N 35°51' E 014°52'0 0.0
2017-Nov-04 23:58N 35°51' E 014°52'0 0.0
2017-Nov-04 23:25N 35°51' E 014°52'0 0.0
2017-Nov-04 22:07N 35°51' E 014°52'0 0.0
2017-Nov-04 20:58N 35°51' E 014°52'0 0.0
2017-Nov-04 20:10N 35°51' E 014°52'0 0.0
2017-Nov-04 19:19N 35°51' E 014°52'0 0.0
2017-Nov-04 18:46N 35°51' E 014°52'0 0.1
2017-Nov-04 18:22N 35°51' E 014°52'0 0.0
2017-Nov-04 17:46N 35°51' E 014°52'0 0.1
2017-Nov-04 17:24N 35°51' E 014°52'0 0.0
2017-Nov-04 16:57N 35°51' E 014°52'0 0.0
2017-Nov-04 16:24N 35°51' E 014°52'0 0.0
2017-Nov-04 16:00N 35°51' E 014°52'0 0.0
2017-Nov-04 15:30N 35°51' E 014°52'0 0.0
2017-Nov-04 14:57N 35°51' E 014°52'0 0.0
2017-Nov-04 14:00N 35°51' E 014°52'0 0.0
2017-Nov-04 13:30N 35°51' E 014°52'0 0.0
2017-Nov-04 13:00N 35°51' E 014°52'0 0.0
2017-Nov-04 12:27N 35°51' E 014°52'0 0.0
2017-Nov-04 12:00N 35°51' E 014°52'0 0.0
2017-Nov-04 11:24N 35°51' E 014°52'0 0.0
2017-Nov-04 10:48N 35°51' E 014°52'0 0.0
2017-Nov-04 10:30N 35°51' E 014°52'0 0.0
2017-Nov-04 10:00N 35°51' E 014°52'0 0.0
2017-Nov-04 09:30N 35°51' E 014°52'0 0.0
2017-Nov-04 09:00N 35°51' E 014°52'0 0.0
2017-Nov-04 08:30N 35°51' E 014°52'0 0.0
2017-Nov-04 08:00N 35°51' E 014°52'0 0.0
2017-Nov-04 07:30N 35°51' E 014°52'0 0.0
2017-Nov-04 07:00N 35°51' E 014°52'0 0.0
2017-Nov-04 06:27N 35°51' E 014°52'0 0.0
2017-Nov-04 04:18N 35°51' E 014°52'0 0.0
2017-Nov-04 02:48N 35°51' E 014°52'0 0.2
2017-Nov-04 02:03N 35°51' E 014°52'0 0.2
2017-Nov-04 01:57N 35°51' E 014°52'0 0.0
2017-Nov-03 21:54N 35°51' E 014°52'0 0.0
2017-Nov-03 19:27N 35°51' E 014°52'0 0.0
2017-Nov-03 18:57N 35°51' E 014°52'0 0.1
2017-Nov-03 18:30N 35°51' E 014°52'0 0.0
2017-Nov-03 17:57N 35°51' E 014°52'0 0.0
2017-Nov-03 17:27N 35°51' E 014°52'0 0.0
2017-Nov-03 16:57N 35°51' E 014°52'0 0.0
2017-Nov-03 16:15N 35°51' E 014°52'0 0.1
2017-Nov-03 15:57N 35°51' E 014°52'0 0.0
2017-Nov-03 15:30N 35°51' E 014°52'0 0.0
2017-Nov-03 15:00N 35°51' E 014°52'0 0.0
2017-Nov-03 14:27N 35°51' E 014°52'0 0.0
2017-Nov-03 13:57N 35°51' E 014°52'0 0.0
2017-Nov-03 13:21N 35°51' E 014°52'0 0.0
2017-Nov-03 13:00N 35°51' E 014°52'0 0.0
2017-Nov-03 12:30N 35°51' E 014°52'0 0.0
2017-Nov-03 11:45N 35°51' E 014°52'0 0.0
2017-Nov-03 11:06N 35°51' E 014°52'0 0.0
2017-Nov-03 10:06N 35°51' E 014°52'0 0.0
2017-Nov-03 09:42N 35°51' E 014°52'0 0.0
2017-Nov-03 09:05N 35°51' E 014°52'0 0.0
2017-Nov-03 08:44N 35°51' E 014°52'0 0.0
2017-Nov-03 08:26N 35°51' E 014°52'0 0.1
2017-Nov-03 07:41N 35°51' E 014°52'0 0.1
2017-Nov-03 07:29N 35°51' E 014°52'0 0.0
2017-Nov-03 06:59N 35°51' E 014°52'0 0.0
2017-Nov-03 06:26N 35°51' E 014°52'0 0.0
2017-Nov-03 05:59N 35°51' E 014°52'0 0.0
2017-Nov-03 05:29N 35°51' E 014°52'0 0.0
2017-Nov-03 04:59N 35°51' E 014°52'0 0.0
2017-Nov-03 04:23N 35°51' E 014°52'0 0.0
2017-Nov-03 03:56N 35°51' E 014°52'0 0.0
2017-Nov-03 02:59N 35°51' E 014°52'0 0.0
2017-Nov-03 02:17N 35°51' E 014°52'0 0.0
2017-Nov-03 01:59N 35°51' E 014°52'0 0.0
2017-Nov-03 01:20N 35°51' E 014°52'0 0.0
2017-Nov-03 00:44N 35°51' E 014°52'0 0.1
2017-Nov-03 00:26N 35°51' E 014°52'0 0.0
2017-Nov-02 23:14N 35°51' E 014°52'0 0.1
2017-Nov-02 22:59N 35°51' E 014°52'0 0.0
2017-Nov-02 22:29N 35°51' E 014°52'0 0.2
2017-Nov-02 21:59N 35°51' E 014°52'0 0.1
2017-Nov-02 21:29N 35°51' E 014°52'0 0.0
2017-Nov-02 18:20N 35°51' E 014°52'0 0.0
2017-Nov-02 17:56N 35°51' E 014°52'0 0.0
2017-Nov-02 17:29N 35°51' E 014°52'0 0.1
2017-Nov-02 16:44N 35°51' E 014°52'0 0.1
2017-Nov-02 16:29N 35°51' E 014°52'0 0.2
2017-Nov-02 15:56N 35°51' E 014°52'0 0.0
2017-Nov-02 15:05N 35°51' E 014°52'0 0.2
2017-Nov-02 14:53N 35°51' E 014°52'0 0.0
2017-Nov-02 14:29N 35°51' E 014°52'0 0.0
2017-Nov-02 13:56N 35°51' E 014°52'2 1.3
2017-Nov-02 12:05N 35°54' E 014°52'1 8.0
2017-Nov-02 12:00N 35°54' E 014°53'4 8.5
2017-Nov-02 11:30N 35°58' E 014°55'  

Dump ship's entire track history